WEATHER DATA

YESTERDAY
Time Temp. Dewp. Hum. Wind dir Wind speed Wind gust Bar. 1h Prec. 24h Prec.
00:02 12.8 9.4 80 220 3.1 6.7 1022.7 0.4040 0.0000
00:12 12.7 9.3 80 220 3.1 6.7 1022.3 0.6060 0.2000
00:23 12.6 9.4 81 220 3.1 6.7 1022 0.6060 0.3000
00:33 12.5 9.3 81 0 0 1021.8 0.7070 0.4000
00:43 12.4 9.4 82 0 0 1021.5 0.6060 0.4000
00:53 12.3 9.3 82 0 0 1021.6 0.4040 0.4000
01:03 12.3 9.3 82 0 0 1021.6 0.4040 0.5000
01:13 12.2 9.4 83 0 0 1021.7 0.3030 0.5000
01:23 12.2 9.4 83 0 0 1021.4 0.3030 0.6000
01:38 12.1 9.5 84 220 3.1 6.7 1020.9 0.3030 0.7000
01:47 12.1 9.5 84 243 3.3 3.3 1020.8 0.3030 0.7000
01:58 12 9.4 84 243 3.3 3.3 1020.8 0.4040 0.8000
02:08 12 9.4 84 0 0 1020.2 0.4040 0.9000
02:18 12 9.6 85 0 0 1019.7 0.6060 1.1000
02:28 12 9.6 85 0 0 1019.7 0.5050 1.2000
02:31 12 9.6 85 243 3.3 3.3 1019.6 0.6060 1.3000
02:41 12 9.6 85 247 1.9 1.9 1019.6 0.6060 1.3000
02:51 11.9 9.5 85 247 1.9 1.9 1019.2 0.6060 1.4000
03:02 11.9 9.6 86 247 1.9 1.9 1019 0.5050 1.4000
03:12 11.9 9.6 86 0 0 1018.9 0.3030 1.4000
03:21 11.9 9.6 86 0 0 1018.7 0.2020 1.4000
03:32 11.9 9.6 86 0 0 1018.7 0.2020 1.5000
03:42 11.9 9.6 86 0 0 1018.8 0.2020 1.5000
03:53 11.9 9.6 86 247 1.9 1.9 1018.8 0.1010 1.5000
04:02 11.9 9.8 87 229 2.5 2.5 1019.2 0.2020 1.6000
04:13 11.9 9.8 87 229 2.5 2.5 1019.1 0.6060 2.0000
04:29 11.9 9.8 87 229 2.5 2.5 1018.6 0.8080 2.3000
04:39 11.9 9.8 87 211 2.5 3.3 1018.8 0.8080 2.3000
04:48 11.9 9.8 87 219 1.9 2.8 1018.6 0.8080 2.3000
04:59 11.9 9.8 87 215 1.9 2.8 1018.8 0.8080 2.3000
05:09 12 10.1 88 215 1.9 2.8 1018.9 0.8080 2.4000
05:19 12 10.1 88 210 2.5 2.8 1018.9 0.3030 2.5000
05:29 12 10.1 88 210 2.5 2.8 1018.7 0.5050 2.8000
05:39 12 10.1 88 200 2.5 2.5 1019.1 0.7070 3.0000
05:49 12 10.1 88 200 2.5 2.5 1019 1.5150 3.8000
05:59 12 10.1 88 212 3.1 3.3 1018.9 1.7170 4.0000
06:10 12 10.1 88 199 3.6 3.6 1018.9 1.7170 4.1000
06:20 12.1 10.2 88 219 3.3 5.6 1018.7 2.1210 4.6000
06:30 12.1 10.2 88 219 3.3 5.6 1019.1 2.4240 5.3000
06:40 12.1 10.2 88 203 3.1 4.2 1019.6 2.5250 5.6000
06:50 12.1 10.2 88 203 3.1 4.2 1020 2.0200 5.9000
07:00 12.1 10.3 89 203 3.1 4.2 1019.7 2.2220 6.4000
07:10 12.1 10.3 89 0 0 1019.7 2.3230 7.0000
07:21 12.1 10.3 89 0 0 1019.6 2.5250 7.8000
07:30 12.1 10.3 89 0 0 1019.9 3.1310 8.7000
07:40 12 10.2 89 0 0 1019.7 3.4340 9.3000
07:50 12.1 10.3 89 0 0 1020.3 3.2320 9.6000
08:01 12 10.2 89 0 0 1019.8 3.4340 10.4000
08:11 12.1 10.3 89 0 0 1019.5 2.9290 10.7000
08:20 12.1 10.5 90 0 0 1019.7 2.1210 10.8000
08:31 12.1 10.5 90 0 0 1020.2 2.0200 11.3000
08:41 12.1 10.5 90 0 0 1020.2 2.5250 11.8000
08:51 12.1 10.5 90 0 0 1019.8 2.3230 12.4000
09:01 12.1 10.5 90 0 0 1019.6 2.4240 13.0000
09:12 12.2 10.6 90 0 0 1019.5 2.6260 13.3000
09:21 12.2 10.6 90 0 0 1019.8 2.5250 13.5000
09:31 12.2 10.6 90 0 0 1019.7 2.4240 14.0000
09:42 12.3 10.7 90 0 0 1019.9 2.0200 14.0000
09:52 12.4 11 91 0 0 1020 1.2120 14.0000
10:02 12.5 11.1 91 0 0 1019.5 1.0100 14.2000
10:17 12.7 11.3 91 203 3.1 4.2 1019 0.8080 14.2000
10:28 12.8 11.4 91 213 1.9 2.5 1019 0.5050 14.2000
10:38 13 11.6 91 213 1.9 2.5 1019.4 0.2020 14.2000
10:48 13.1 11.7 91 213 1.9 2.5 1019 0.2020 14.2000
10:58 13.2 11.8 91 0 0 1019 0.2020 14.2000
11:08 13.3 11.7 90 0 0 1018.9 0.0000 14.2000
11:18 13.3 11.7 90 0 0 1018.8 0.0000 14.2000
11:28 13.4 12 91 0 0 1019 0.0000 14.2000
11:39 13.4 12 91 0 0 1019.4 0.0000 14.2000
11:45 13.4 11.8 90 0 0 1019.4 0.0000 14.2000
11:55 13.5 11.9 90 0 0 1019.2 0.0000 14.2000
12:04 13.7 12.3 91 0 0 1019.1 0.0000 14.2000
12:14 13.9 12.3 90 0 0 1019.1 0.0000 14.2000
12:25 14 12.4 90 0 0 1018.8 0.0000 14.2000
12:35 14.2 12.6 90 0 0 1018.6 0.0000 14.2000
12:43 14.4 12.6 89 0 0 1018.6 0.0000 14.2000
12:53 14.7 12.7 88 0 0 1018.6 0.0000 14.2000
13:08 15.2 12.9 86 0 0 1018.7 0.0000 14.2000
13:19 15.5 12.8 84 242 5.6 5.6 1018.6 0.0000 14.2000
13:29 16.1 12.8 81 250 4.2 7.5 1018.8 0.0000 14.2000
13:35 16.3 12.7 79 244 4.7 11.1 1018.8 0.0000 14.2000
13:45 16.5 12.1 75 246 4.2 8.6 1018.8 0.0000 14.2000
13:55 16.4 11.6 73 243 3.3 7.2 1018.9 0.0000 14.2000
14:06 16.3 11.2 72 244 3.6 7.8 1018.9 0.0000 14.2000
14:14 16.3 11 71 241 4.2 9.2 1019 0.0000 14.2000
14:24 16.2 10.3 68 241 4.2 8.9 1019.1 0.0000 14.2000
14:34 16.5 10.6 68 244 3.6 7.2 1019.2 0.0000 14.2000
14:44 16.6 10.2 66 238 5.6 7.5 1019.4 0.0000 14.2000
14:54 16.8 10.2 65 259 2.5 2.5 1019.4 0.0000 14.2000
15:05 17.1 10.2 64 259 2.5 2.5 1019.5 0.0000 14.2000
15:14 16.8 9.2 61 246 4.4 4.4 1019.6 0.0000 14.2000
15:24 16.4 8.6 60 246 4.4 4.4 1019.7 0.0000 14.2000
15:34 16.4 8.4 59 222 4.2 5.6 1019.8 0.0000 14.2000
15:45 16.5 8 57 261 3.3 3.3 1019.8 0.0000 14.2000
15:55 16.4 7.6 56 240 4.4 5.6 1020.1 0.0000 14.2000
16:04 16.2 7.4 56 241 4.2 5.6 1020.2 0.0000 14.2000
16:15 15.7 7 56 239 4.2 7.8 1020.5 0.0000 14.2000
16:25 15.3 6.8 57 248 3.3 6.7 1020.8 0.0000 14.2000
16:35 14.9 6 55 235 4.4 7.5 1021 0.0000 14.2000
16:45 14.5 5.6 55 249 1.9 1.9 1021.2 0.0000 14.2000
16:55 14.2 5 54 234 4.4 6.7 1021.5 0.0000 14.2000
17:04 13.8 4.7 54 221 4.7 6.7 1021.7 0.0000 14.2000
17:14 13.5 4.4 54 220 4.7 6.4 1021.9 0.0000 14.2000
17:25 13.3 4.5 55 222 4.4 6.4 1022.4 0.0000 14.2000
17:35 13 4.2 55 222 4.4 6.4 1022.5 0.0000 14.2000
17:45 12.8 4.3 56 216 4.2 4.2 1022.7 0.0000 14.2000
17:55 12.6 4.3 57 216 4.2 4.2 1022.8 0.0000 14.2000
18:05 12.4 4.4 58 216 4.2 4.2 1023 0.0000 14.2000
18:15 12.1 4.3 59 0 0 1023.1 0.0000 14.2000
18:30 11.8 4.3 60 216 4.2 4.2 1023.2 0.0000 14.2000
18:39 11.6 4.3 61 214 3.3 5 1023.4 0.0000 14.2000
18:49 11.4 4.2 61 215 4.2 5.8 1023.6 0.0000 14.2000
19:00 11.2 4 61 215 4.2 5.8 1023.7 0.0000 14.2000
19:10 11.1 4.1 62 215 4.2 5.8 1023.9 0.0000 14.2000
19:19 10.9 3.9 62 208 4.4 4.7 1024.1 0.0000 14.2000
19:29 10.8 3.8 62 208 4.4 4.7 1024.4 0.0000 14.2000
19:40 10.7 4 63 208 4.4 4.7 1024.7 0.0000 14.2000
19:50 10.6 3.9 63 223 3.1 3.1 1025.1 0.0000 14.2000
20:00 10.5 3.8 63 223 3.1 3.1 1025.5 0.0000 14.2000
20:10 10.5 4 64 195 1.9 1.9 1025.7 0.0000 14.2000
20:20 10.3 3.8 64 195 1.9 1.9 1025.9 0.0000 14.2000
20:30 10.3 4 65 195 1.9 1.9 1025.8 0.0000 14.2000
20:40 10.2 4.1 66 0 0 1025.8 0.0000 14.2000
21:00 10.1 4 66 0 0 1026 0.0000 14.2000
21:10 10 3.9 66 0 0 1026.1 0.0000 14.2000
21:21 10 4.2 67 0 0 1026 0.0000 14.2000
21:31 9.9 4.1 67 0 0 1026.1 0.0000 14.2000
21:41 9.8 4 67 0 0 1026 0.0000 14.2000
21:51 9.6 3.8 67 0 0 1026 0.0000 14.2000
22:01 9.6 4 68 0 0 1025.9 0.0000 14.2000
22:11 9.6 4 68 0 0 1025.9 0.0000 14.2000
22:21 9.5 3.9 68 0 0 1025.9 0.0000 14.2000
22:31 9.5 3.9 68 0 0 1025.9 0.0000 14.2000
22:42 9.3 3.7 68 0 0 1025.9 0.0000 14.2000
22:51 9.2 3.6 68 0 0 1025.9 0.0000 14.2000
23:01 9.1 3.7 69 0 0 1025.9 0.0000 14.2000
23:12 9 3.6 69 0 0 1025.7 0.0000 14.2000
23:22 8.9 3.5 69 0 0 1025.7 0.0000 14.2000
23:32 8.9 3.7 70 0 0 1025.7 0.0000 14.2000
23:42 8.8 3.6 70 0 0 1025.7 0.0000 14.2000
23:52 8.8 3.6 70 0 0 1025.6 0.0000

DAY STATISTIC

2021-09-18
TEMPERATURE
AVERAGE
12.5
HIGH
17.1
15:05
LOW
8.8
23:42
PRESSURE
AVERAGE
1021.1
HIGH
1026.1
21:10
LOW
1018.6
04:29
DEWPOINT
AVERAGE
8.4
HIGH
12.9
13:08
LOW
3.5
23:22
HUMIDITY
AVERAGE
77
HIGH
91
09:52
LOW
54
16:55
WIND SPEED
AVERAGE
1.8
HIGH
5.6
13:19
WIND GUST
AVERAGE
2.5
HIGH
11.1
13:35
WIND DIRECTION
PREVAILING
SW
78.9%
N
0.0
NE
0.0
E
0.0
SE
0.0
S
13.2
SW
78.9
W
7.9
NW
0.0
PRECIPITATION
RAIN HOUR
3.4
RAIN DAY
14.2
TEMPERATURE (°C)
LOW
8.8
HIGH
17.1
AVERAGE
12.5
PRESSURE (hpa)
LOW
1018.6
HIGH
1026.1
AVERAGE
1021.1
DEVICE